Time;durP1;ratioP1;P1;durP2;ratioP2;P2;SDS_P1;SDS_P2;PMS_P1;PMS_P2;Temp;Humidity;BMP_temperature;BMP_pressure;BME280_temperature;BME280_humidity;BME280_pressure;Samples;Min_cycle;Max_cycle;Signal;HPM_P1;HPM_P2
2022/03/22 00:07:27;;;;;;;18.15;8.43;;;8.20;99.90;;;;;;20798010;28;20052;-44
2022/03/22 00:17:28;;;;;;;18.52;7.35;;;8.20;99.90;;;;;;20792296;28;20421;-49
2022/03/22 00:27:50;;;;;;;16.45;8.63;;;8.20;99.90;;;;;;20795386;28;20057;-44
2022/03/22 00:37:53;;;;;;;21.25;8.32;;;8.10;99.90;;;;;;20796362;28;21457;-44
2022/03/22 00:47:56;;;;;;;20.95;8.15;;;8.10;99.90;;;;;;20794083;28;20045;-51
2022/03/22 00:57:57;;;;;;;21.60;7.70;;;8.00;99.90;;;;;;20789022;28;20041;-46
2022/03/22 01:08:10;;;;;;;21.50;8.38;;;7.90;99.90;;;;;;20793147;28;20045;-44
2022/03/22 01:18:12;;;;;;;20.65;7.53;;;7.90;99.90;;;;;;20799458;28;20534;-44
2022/03/22 01:28:14;;;;;;;25.85;7.95;;;7.70;99.90;;;;;;20800134;28;20053;-44
2022/03/22 01:38:15;;;;;;;18.60;8.10;;;7.60;99.90;;;;;;20800319;28;20041;-44
2022/03/22 01:48:16;;;;;;;18.52;7.80;;;7.50;99.90;;;;;;20807009;28;20050;-44
2022/03/22 01:58:17;;;;;;;23.50;9.35;;;7.50;99.90;;;;;;20814919;28;20046;-44
2022/03/22 02:08:20;;;;;;;18.00;7.80;;;7.50;99.90;;;;;;20812854;28;20045;-45
2022/03/22 02:18:24;;;;;;;25.35;8.88;;;7.60;99.90;;;;;;20813946;28;20107;-44
2022/03/22 02:28:25;;;;;;;21.33;8.45;;;7.50;99.90;;;;;;20813141;28;20044;-44
2022/03/22 02:38:26;;;;;;;24.30;8.05;;;7.40;99.90;;;;;;20812182;28;20041;-44
2022/03/22 02:48:28;;;;;;;19.42;7.45;;;7.40;99.90;;;;;;20806370;28;20135;-44
2022/03/22 02:58:29;;;;;;;18.98;7.15;;;7.30;99.90;;;;;;20805193;28;20045;-44
2022/03/22 03:08:30;;;;;;;19.40;8.52;;;7.20;99.90;;;;;;20805450;28;20064;-44
2022/03/22 03:18:31;;;;;;;21.92;7.20;;;7.10;99.90;;;;;;20802409;28;20508;-44
2022/03/22 03:28:32;;;;;;;25.75;9.35;;;7.00;99.90;;;;;;20805098;28;20377;-45
2022/03/22 03:38:41;;;;;;;17.75;8.20;;;6.90;99.90;;;;;;20801582;28;20052;-44
2022/03/22 03:48:42;;;;;;;20.35;8.55;;;6.80;99.90;;;;;;20803489;28;20038;-44
2022/03/22 03:58:43;;;;;;;21.65;8.52;;;6.60;99.90;;;;;;20805895;28;21433;-44
2022/03/22 04:08:44;;;;;;;22.70;9.25;;;6.50;99.90;;;;;;20806723;28;20052;-44
2022/03/22 04:18:45;;;;;;;18.25;7.00;;;6.60;99.90;;;;;;20806134;28;20049;-44
2022/03/22 04:39:06;;;;;;;23.80;8.15;;;6.50;99.90;;;;;;20807380;28;20055;-44
2022/03/22 04:49:07;;;;;;;18.48;6.53;;;6.50;99.90;;;;;;20791018;28;20051;-44
2022/03/22 04:59:08;;;;;;;20.00;7.00;;;6.50;99.90;;;;;;20807817;28;20049;-49
2022/03/22 05:09:10;;;;;;;19.02;8.02;;;6.50;99.90;;;;;;20802669;28;20045;-44
2022/03/22 05:19:13;;;;;;;18.88;8.63;;;6.50;99.90;;;;;;20806890;28;20060;-44
2022/03/22 05:29:14;;;;;;;18.17;6.65;;;6.50;99.90;;;;;;20819931;28;20045;-45
2022/03/22 05:39:15;;;;;;;23.27;7.57;;;6.70;99.90;;;;;;20820700;28;20528;-44
2022/03/22 05:49:16;;;;;;;19.13;7.70;;;6.70;99.90;;;;;;20804256;28;20045;-52
2022/03/22 05:59:17;;;;;;;17.13;7.20;;;6.80;99.90;;;;;;20812671;28;20037;-44
2022/03/22 06:09:18;;;;;;;21.25;7.68;;;6.90;99.90;;;;;;20797594;28;20049;-44
2022/03/22 06:19:20;;;;;;;17.20;8.35;;;7.20;99.90;;;;;;20822971;28;20305;-44
2022/03/22 06:29:21;;;;;;;23.55;6.68;;;7.50;99.90;;;;;;20822092;28;20496;-45
2022/03/22 06:39:22;;;;;;;16.98;6.93;;;7.60;99.90;;;;;;20822791;28;20045;-44
2022/03/22 06:49:23;;;;;;;20.88;8.30;;;7.70;99.90;;;;;;20821928;28;20045;-44
2022/03/22 06:59:26;;;;;;;18.30;7.65;;;8.00;99.90;;;;;;20819686;28;20044;-45
2022/03/22 07:09:30;;;;;;;20.52;8.02;;;8.40;99.90;;;;;;20822049;28;20080;-45
2022/03/22 07:19:31;;;;;;;19.92;8.20;;;8.80;99.90;;;;;;20829513;28;20045;-45
2022/03/22 07:29:32;;;;;;;20.38;9.55;;;9.20;99.90;;;;;;20827750;28;20046;-46
2022/03/22 07:39:34;;;;;;;19.08;8.23;;;9.60;99.90;;;;;;20825256;28;20049;-45
2022/03/22 07:59:56;;;;;;;19.38;7.93;;;10.40;99.90;;;;;;20820472;28;20106;-45
2022/03/22 08:09:57;;;;;;;17.77;7.72;;;10.70;99.90;;;;;;20772442;28;20050;-45
2022/03/22 08:19:58;;;;;;;19.35;8.93;;;11.10;99.90;;;;;;20792451;28;20041;-45
2022/03/22 08:29:59;;;;;;;18.17;7.43;;;11.60;99.90;;;;;;20733595;28;20234;-45
2022/03/22 08:40:03;;;;;;;13.43;6.07;;;12.00;99.90;;;;;;20748912;28;20083;-45
2022/03/22 08:50:05;;;;;;;14.90;6.72;;;12.40;99.90;;;;;;20786031;28;20132;-45
2022/03/22 09:00:09;;;;;;;14.18;6.47;;;12.80;99.90;;;;;;20805269;28;20049;-44
2022/03/22 09:10:12;;;;;;;10.63;5.65;;;13.40;99.90;;;;;;20769442;28;20050;-46
2022/03/22 09:20:13;;;;;;;15.23;6.40;;;14.00;99.90;;;;;;20735152;28;20045;-45
2022/03/22 09:30:15;;;;;;;15.63;6.13;;;14.40;99.90;;;;;;20769136;28;20034;-46
2022/03/22 09:40:18;;;;;;;15.07;6.85;;;14.80;99.90;;;;;;20779425;28;20034;-45
2022/03/22 09:50:20;;;;;;;11.93;5.72;;;15.00;99.90;;;;;;20746923;28;20053;-45
2022/03/22 10:00:21;;;;;;;13.32;7.07;;;15.30;99.90;;;;;;20733402;28;20046;-45
2022/03/22 10:10:22;;;;;;;12.00;6.40;;;15.70;99.90;;;;;;20776284;28;20389;-45
2022/03/22 10:20:24;;;;;;;13.25;5.68;;;16.00;99.90;;;;;;20793432;28;20033;-45
2022/03/22 10:30:26;;;;;;;12.10;5.38;;;16.40;99.90;;;;;;20783470;28;20485;-46
2022/03/22 10:40:42;;;;;;;20.75;7.32;;;16.80;99.90;;;;;;20785674;28;20216;-45
2022/03/22 10:50:46;;;;;;;12.35;6.28;;;17.20;99.90;;;;;;20787365;28;20053;-45
2022/03/22 11:00:49;;;;;;;10.60;4.88;;;17.70;98.90;;;;;;20785138;28;20508;-45
2022/03/22 11:10:53;;;;;;;13.63;5.88;;;18.40;96.70;;;;;;20774856;28;20065;-45
2022/03/22 11:20:55;;;;;;;14.38;5.25;;;18.80;96.20;;;;;;20777744;28;20044;-45
2022/03/22 11:30:57;;;;;;;11.90;4.60;;;19.80;96.70;;;;;;20780409;28;20425;-46
2022/03/22 11:51:23;;;;;;;11.07;4.75;;;20.40;92.50;;;;;;20806874;28;20051;-45
2022/03/22 12:01:35;;;;;;;9.57;4.93;;;20.80;92.10;;;;;;20817245;28;20064;-46
2022/03/22 12:11:37;;;;;;;10.75;5.50;;;21.30;91.40;;;;;;20777361;28;20856;-45
2022/03/22 12:21:39;;;;;;;8.27;3.55;;;21.80;91.00;;;;;;20735433;28;20052;-46
2022/03/22 12:31:50;;;;;;;7.38;3.58;;;21.60;89.60;;;;;;20768729;28;20045;-46
2022/03/22 12:41:52;;;;;;;9.48;3.92;;;21.70;89.30;;;;;;20782006;28;21101;-46
2022/03/22 12:51:53;;;;;;;7.32;3.25;;;22.00;84.10;;;;;;20776233;28;20048;-46
2022/03/22 13:01:58;;;;;;;7.45;3.28;;;22.70;84.50;;;;;;20774524;28;20056;-46
2022/03/22 13:11:59;;;;;;;6.13;2.65;;;22.50;82.10;;;;;;20758516;28;20441;-46
2022/03/22 13:22:02;;;;;;;6.10;2.72;;;23.00;81.30;;;;;;20759280;28;20172;-47
2022/03/22 13:32:06;;;;;;;6.93;2.85;;;23.00;83.80;;;;;;20746467;28;20072;-47
2022/03/22 13:42:17;;;;;;;3.78;2.13;;;23.20;78.80;;;;;;20765332;28;20172;-46
2022/03/22 13:52:30;;;;;;;8.70;3.42;;;22.80;79.70;;;;;;20760120;28;20049;-46
2022/03/22 14:02:31;;;;;;;6.25;3.50;;;23.70;79.00;;;;;;20778456;28;20052;-47
2022/03/22 14:12:32;;;;;;;5.32;2.40;;;23.70;79.20;;;;;;20734473;28;20050;-46
2022/03/22 14:22:34;;;;;;;6.18;3.20;;;23.60;75.70;;;;;;20721532;28;20048;-47
2022/03/22 14:32:35;;;;;;;5.03;2.45;;;23.20;74.60;;;;;;20746178;28;20046;-46
2022/03/22 14:42:36;;;;;;;13.93;4.13;;;23.00;76.80;;;;;;20758757;28;20042;-46
2022/03/22 15:02:58;;;;;;;12.95;5.40;;;21.60;80.00;;;;;;20773386;28;21681;-46
2022/03/22 15:12:59;;;;;;;10.25;4.55;;;21.30;78.60;;;;;;20764093;28;20061;-48
2022/03/22 15:23:01;;;;;;;12.45;5.60;;;21.00;80.50;;;;;;20781396;28;20049;-46
2022/03/22 15:33:03;;;;;;;8.93;4.97;;;20.70;84.60;;;;;;20781013;28;20543;-46
2022/03/22 15:43:07;;;;;;;12.65;5.05;;;20.50;84.40;;;;;;20781369;28;20048;-47
2022/03/22 15:53:08;;;;;;;18.52;5.00;;;20.20;87.90;;;;;;20785735;28;20049;-46
2022/03/22 16:03:10;;;;;;;13.80;5.93;;;19.80;88.90;;;;;;20777588;28;20056;-46
2022/03/22 16:13:11;;;;;;;12.13;4.82;;;19.60;90.20;;;;;;20775774;28;20305;-46
2022/03/22 16:23:12;;;;;;;13.45;5.50;;;19.00;90.60;;;;;;20776968;28;20505;-46
2022/03/22 16:43:33;;;;;;;15.98;5.70;;;18.40;92.00;;;;;;20799015;28;20040;-49
2022/03/22 16:53:37;;;;;;;13.80;5.90;;;18.10;92.70;;;;;;20813155;28;20235;-49
2022/03/22 17:03:39;;;;;;;14.02;5.68;;;18.00;93.70;;;;;;20812932;28;20044;-48
2022/03/22 17:13:44;;;;;;;14.50;6.45;;;17.80;94.70;;;;;;20802414;28;20088;-49
2022/03/22 17:23:46;;;;;;;15.60;6.43;;;17.60;95.00;;;;;;20784895;28;20046;-49
2022/03/22 17:33:48;;;;;;;11.95;6.07;;;17.30;96.40;;;;;;20785825;28;20495;-49
2022/03/22 17:43:52;;;;;;;12.85;4.95;;;17.10;98.10;;;;;;20728553;28;20064;-49
2022/03/22 17:53:53;;;;;;;14.18;5.80;;;16.80;99.80;;;;;;20771411;28;20060;-49
2022/03/22 18:03:54;;;;;;;14.15;6.03;;;16.40;99.90;;;;;;20761495;28;20042;-49
2022/03/22 18:13:55;;;;;;;15.70;6.03;;;16.00;99.90;;;;;;20774145;28;20049;-49
2022/03/22 18:24:02;;;;;;;14.23;5.95;;;15.60;99.90;;;;;;20799709;28;20045;-49
2022/03/22 18:34:07;;;;;;;18.42;6.68;;;15.20;99.90;;;;;;20794219;28;20864;-50
2022/03/22 18:44:08;;;;;;;17.20;6.35;;;14.80;99.90;;;;;;20808149;28;20041;-49
2022/03/22 18:54:10;;;;;;;18.10;6.72;;;14.50;99.90;;;;;;20817554;28;20552;-49
2022/03/22 19:04:12;;;;;;;19.10;7.47;;;14.20;99.90;;;;;;20821272;28;20041;-49
2022/03/22 19:14:13;;;;;;;18.98;7.78;;;13.90;99.90;;;;;;20818997;28;20209;-49
2022/03/22 19:24:14;;;;;;;19.52;6.80;;;13.70;99.90;;;;;;20805402;28;20044;-49
2022/03/22 19:34:16;;;;;;;15.75;7.10;;;13.60;99.90;;;;;;20810549;28;20049;-49
2022/03/22 19:44:17;;;;;;;15.18;7.47;;;13.10;99.90;;;;;;20772210;28;20048;-49
2022/03/22 19:54:18;;;;;;;18.08;7.22;;;13.00;99.90;;;;;;20803910;28;20041;-49
2022/03/22 20:04:19;;;;;;;19.63;8.25;;;12.80;99.90;;;;;;20803228;28;20045;-49
2022/03/22 20:14:21;;;;;;;21.92;8.88;;;12.60;99.90;;;;;;20808867;28;20052;-48
2022/03/22 20:24:22;;;;;;;23.52;9.00;;;12.40;99.90;;;;;;20798397;28;20037;-48
2022/03/22 20:34:23;;;;;;;20.92;8.27;;;12.30;99.90;;;;;;20802390;28;20389;-49
2022/03/22 20:44:26;;;;;;;19.70;7.97;;;12.10;99.90;;;;;;20787898;28;20044;-49
2022/03/22 20:54:27;;;;;;;18.17;7.07;;;11.80;99.90;;;;;;20815511;28;20381;-48
2022/03/22 21:04:28;;;;;;;18.95;8.85;;;11.70;99.90;;;;;;20819808;28;20042;-48
2022/03/22 21:14:29;;;;;;;19.75;8.57;;;11.50;99.90;;;;;;20822721;28;20058;-48
2022/03/22 21:24:30;;;;;;;20.73;9.48;;;11.30;99.90;;;;;;20825978;28;20040;-48
2022/03/22 21:34:32;;;;;;;19.98;7.63;;;11.20;99.90;;;;;;20825739;28;20052;-49
2022/03/22 21:44:33;;;;;;;24.25;8.48;;;11.00;99.90;;;;;;20826607;28;20057;-48
2022/03/22 21:54:34;;;;;;;21.35;8.45;;;10.90;99.90;;;;;;20827272;28;20045;-49
2022/03/22 22:04:36;;;;;;;18.92;7.95;;;10.80;99.90;;;;;;20828566;28;20037;-48
2022/03/22 22:14:36;;;;;;;19.08;6.40;;;10.60;99.90;;;;;;20828438;28;20537;-48
2022/03/22 22:24:38;;;;;;;20.52;7.75;;;10.40;99.90;;;;;;20824508;28;20065;-48
2022/03/22 22:34:39;;;;;;;16.30;7.20;;;10.30;99.90;;;;;;20820606;28;20045;-49
2022/03/22 22:44:40;;;;;;;19.25;7.75;;;10.10;99.90;;;;;;20825926;28;20044;-48
2022/03/22 22:54:44;;;;;;;18.70;6.63;;;10.00;99.90;;;;;;20826471;28;20120;-51
2022/03/22 23:04:45;;;;;;;16.15;7.28;;;9.80;99.90;;;;;;20821847;28;20482;-48
2022/03/22 23:14:46;;;;;;;14.93;7.18;;;9.70;99.90;;;;;;20793714;28;20049;-48
2022/03/22 23:24:47;;;;;;;16.27;6.68;;;9.70;99.90;;;;;;20782580;28;20052;-49
2022/03/22 23:34:48;;;;;;;16.13;6.45;;;9.60;99.90;;;;;;20784279;28;20471;-51
2022/03/22 23:44:49;;;;;;;17.25;6.22;;;9.50;99.90;;;;;;20787046;28;20048;-48
2022/03/22 23:54:50;;;;;;;18.58;6.00;;;9.40;99.90;;;;;;20785865;28;20303;-48
